Time;durP1;ratioP1;P1;durP2;ratioP2;P2;SDS_P1;SDS_P2;PMS_P1;PMS_P2;Temp;Humidity;BMP_temperature;BMP_pressure;BME280_temperature;BME280_humidity;BME280_pressure;Samples;Min_cycle;Max_cycle;Signal;HPM_P1;HPM_P2
2024/02/01 00:01:57;;;;;;;22.38;10.80;;;;;;;-1.95;64.67;100757.59;4889990;29;20550;-92
2024/02/01 00:04:22;;;;;;;20.13;11.07;;;;;;;-1.92;64.91;100765.19;4889784;29;20035;-94
2024/02/01 00:06:51;;;;;;;18.95;11.18;;;;;;;-2.02;65.50;100767.09;4888394;29;20032;-92
2024/02/01 00:09:17;;;;;;;20.42;9.88;;;;;;;-2.03;65.68;100765.44;4889267;29;20058;-92
2024/02/01 00:11:43;;;;;;;14.85;9.32;;;;;;;-1.95;65.25;100760.22;4889701;29;20032;-91
2024/02/01 00:14:08;;;;;;;15.15;9.20;;;;;;;-2.08;65.21;100736.03;4889782;29;20119;-92
2024/02/01 00:16:36;;;;;;;16.35;9.98;;;;;;;-2.11;65.76;100750.34;4889701;29;20059;-93
2024/02/01 00:19:02;;;;;;;16.40;9.55;;;;;;;-2.16;65.64;100735.94;4891173;29;20021;-93
2024/02/01 00:21:27;;;;;;;17.83;9.63;;;;;;;-2.25;65.36;100740.34;4908605;29;20397;-92
2024/02/01 00:23:53;;;;;;;16.95;9.57;;;;;;;-2.12;65.28;100743.41;4906663;29;20515;-93
2024/02/01 00:26:20;;;;;;;21.27;10.02;;;;;;;-2.02;65.19;100735.41;4907960;29;20098;-93
2024/02/01 00:28:46;;;;;;;17.30;9.52;;;;;;;-1.84;64.80;100753.88;4908467;29;20039;-93
2024/02/01 00:31:11;;;;;;;16.92;10.07;;;;;;;-1.94;65.08;100732.84;4908754;29;20036;-93
2024/02/01 00:33:37;;;;;;;18.90;9.48;;;;;;;-1.92;64.83;100719.50;4909746;29;20028;-93
2024/02/01 00:36:03;;;;;;;21.15;10.18;;;;;;;-1.71;64.79;100749.00;4910597;29;20047;-94
2024/02/01 00:38:28;;;;;;;20.58;10.13;;;;;;;-1.79;64.81;100743.66;4910310;29;20176;-94
2024/02/01 00:40:54;;;;;;;20.75;10.32;;;;;;;-1.87;64.38;100738.34;4910341;29;20043;-92
2024/02/01 00:43:19;;;;;;;22.10;10.48;;;;;;;-1.95;64.01;100719.78;4907087;29;20032;-93
2024/02/01 00:45:45;;;;;;;18.40;10.20;;;;;;;-1.87;64.62;100739.19;4892562;29;20032;-93
2024/02/01 00:48:11;;;;;;;15.82;10.02;;;;;;;-2.00;64.33;100735.28;4891863;29;20036;-92
2024/02/01 00:50:36;;;;;;;26.75;10.85;;;;;;;-2.07;64.73;100727.16;4892945;29;20436;-92
2024/02/01 00:53:02;;;;;;;18.55;10.27;;;;;;;-2.04;64.90;100742.66;4891265;29;20118;-92
2024/02/01 00:55:27;;;;;;;16.70;9.60;;;;;;;-2.15;65.04;100738.44;4893632;29;20403;-92
2024/02/01 00:57:53;;;;;;;19.35;10.75;;;;;;;-2.21;64.51;100741.69;4892643;29;20036;-92
2024/02/01 01:00:18;;;;;;;20.38;10.65;;;;;;;-2.20;65.02;100746.00;4891325;29;20043;-90
2024/02/01 01:02:44;;;;;;;20.73;11.02;;;;;;;-2.39;65.52;100731.13;4897406;29;20031;-94
2024/02/01 01:05:10;;;;;;;18.83;10.63;;;;;;;-2.45;65.39;100729.09;4891965;29;20062;-92
2024/02/01 01:07:35;;;;;;;20.88;10.70;;;;;;;-2.49;65.29;100710.13;4923920;29;20054;-92
2024/02/01 01:10:01;;;;;;;19.10;11.52;;;;;;;-2.39;65.47;100735.59;4890527;29;20098;-91
2024/02/01 01:12:27;;;;;;;17.35;10.82;;;;;;;-2.33;64.92;100716.53;4909646;29;20031;-92
2024/02/01 01:14:52;;;;;;;20.40;11.57;;;;;;;-2.14;64.49;100721.63;4896918;29;20035;-92
2024/02/01 01:17:20;;;;;;;19.27;10.10;;;;;;;-2.08;64.47;100728.09;4894404;29;20115;-91
2024/02/01 01:19:46;;;;;;;20.23;11.55;;;;;;;-2.21;65.25;100719.75;4889039;29;20048;-92
2024/02/01 01:22:12;;;;;;;16.60;9.98;;;;;;;-2.36;65.04;100701.00;4915543;29;20038;-93
2024/02/01 01:24:38;;;;;;;19.02;9.30;;;;;;;-2.44;65.17;100696.47;4920668;29;20111;-92
2024/02/01 01:27:04;;;;;;;19.30;10.20;;;;;;;-2.38;65.33;100722.25;4909552;29;20091;-92
2024/02/01 01:29:29;;;;;;;17.02;9.90;;;;;;;-2.39;65.86;100722.41;4908797;29;20031;-92
2024/02/01 01:31:55;;;;;;;18.02;10.55;;;;;;;-2.48;65.41;100709.13;4909698;29;20027;-93
2024/02/01 01:34:21;;;;;;;15.93;8.98;;;;;;;-2.56;65.93;100690.59;4894094;29;20130;-92
2024/02/01 01:36:46;;;;;;;20.75;9.80;;;;;;;-2.51;65.93;100709.44;4888473;29;20115;-92
2024/02/01 01:39:12;;;;;;;18.52;10.00;;;;;;;-2.45;65.82;100708.84;4906999;29;20450;-93
2024/02/01 01:41:44;;;;;;;15.63;9.25;;;;;;;-2.37;64.91;100696.69;4905018;29;20018;-91
2024/02/01 01:44:09;;;;;;;;;;;;;;;-2.27;64.79;100719.38;4908560;29;20028;-93
2024/02/01 01:46:35;;;;;;;13.88;8.07;;;;;;;-2.46;65.06;100686.06;4927553;29;19927;-93
2024/02/01 01:49:00;;;;;;;15.63;8.88;;;;;;;-2.26;64.79;100702.59;4893143;29;20072;-93
2024/02/01 01:51:26;;;;;;;18.30;9.43;;;;;;;-2.28;64.96;100685.25;4907358;29;20028;-94
2024/02/01 01:53:51;;;;;;;15.57;8.98;;;;;;;-2.21;65.03;100696.03;4904984;29;20079;-93
2024/02/01 01:56:17;;;;;;;23.23;9.48;;;;;;;-2.29;65.59;100694.13;4883119;29;20024;-93
2024/02/01 01:58:42;;;;;;;19.92;10.63;;;;;;;-2.48;65.27;100674.84;4891148;29;20529;-95
2024/02/01 02:01:08;;;;;;;17.65;9.27;;;;;;;-2.45;65.63;100681.63;4892536;29;20020;-93
2024/02/01 02:03:36;;;;;;;18.20;9.90;;;;;;;-2.69;65.97;100654.06;4898043;29;20024;-94
2024/02/01 02:06:03;;;;;;;21.02;9.27;;;;;;;-2.72;66.31;100677.25;4907108;29;20027;-92
2024/02/01 02:08:29;;;;;;;19.63;10.50;;;;;;;-2.78;66.38;100672.56;4907045;29;20051;-93
2024/02/01 02:10:54;;;;;;;18.92;10.00;;;;;;;-2.73;66.44;100671.16;4906468;29;20096;-93
2024/02/01 02:13:20;;;;;;;22.88;10.10;;;;;;;-2.86;66.25;100647.81;4894861;29;20078;-94
2024/02/01 02:15:46;;;;;;;17.90;10.27;;;;;;;-2.95;66.46;100659.22;4905667;29;20036;-92
2024/02/01 02:18:12;;;;;;;23.90;10.10;;;;;;;-2.91;66.08;100679.03;4906950;29;20012;-92
2024/02/01 02:20:40;;;;;;;24.33;10.65;;;;;;;-2.98;66.68;100666.63;4916457;29;20044;-95
2024/02/01 02:23:07;;;;;;;15.68;9.75;;;;;;;-2.85;66.15;100649.44;4892324;29;20487;-91
2024/02/01 02:25:33;;;;;;;22.65;11.63;;;;;;;-2.77;66.32;100664.53;4891468;29;20043;-93
2024/02/01 02:27:58;;;;;;;18.15;10.27;;;;;;;-2.87;66.34;100642.69;4895424;29;20031;-93
2024/02/01 02:30:24;;;;;;;25.35;10.50;;;;;;;-2.68;65.62;100666.28;4907242;29;20028;-93
2024/02/01 02:32:50;;;;;;;16.33;9.90;;;;;;;-2.49;65.51;100669.72;4899781;29;20040;-90
2024/02/01 02:35:16;;;;;;;13.30;7.50;;;;;;;-2.39;64.07;100672.28;4897849;29;20034;-92
2024/02/01 02:37:49;;;;;;;19.05;10.20;;;;;;;-2.49;64.22;100667.94;4897545;29;20031;-92
2024/02/01 02:40:16;;;;;;;17.65;9.77;;;;;;;-2.51;65.17;100675.16;4907327;29;20501;-93
2024/02/01 02:42:42;;;;;;;20.67;10.60;;;;;;;-2.65;65.43;100649.31;4890936;29;20039;-92
2024/02/01 02:45:08;;;;;;;22.17;10.95;;;;;;;-2.72;65.72;100666.72;4890118;29;20083;-92
2024/02/01 02:47:34;;;;;;;17.20;10.02;;;;;;;-2.75;65.79;100664.38;4889894;29;20032;-90
2024/02/01 02:49:59;;;;;;;19.90;10.32;;;;;;;-3.00;66.24;100656.22;4890179;29;20056;-93
2024/02/01 02:52:25;;;;;;;17.45;9.70;;;;;;;-2.80;66.14;100677.16;4889995;29;20032;-93
2024/02/01 02:54:51;;;;;;;19.05;10.43;;;;;;;-2.93;65.92;100659.09;4896517;29;20032;-92
2024/02/01 02:57:16;;;;;;;16.48;9.93;;;;;;;-3.02;66.21;100652.91;4895283;29;20063;-92
2024/02/01 02:59:42;;;;;;;21.85;11.10;;;;;;;-2.95;66.14;100658.41;4887827;29;20123;-92
2024/02/01 03:02:07;;;;;;;20.85;9.80;;;;;;;-3.07;66.01;100648.09;4899303;29;20027;-93
2024/02/01 03:04:34;;;;;;;16.80;9.95;;;;;;;-3.16;66.63;100646.31;4898429;29;20064;-93
2024/02/01 03:06:59;;;;;;;19.08;11.20;;;;;;;-3.21;66.63;100639.88;4888862;29;20027;-93
2024/02/01 03:09:25;;;;;;;30.25;10.88;;;;;;;-3.14;66.58;100648.81;4893274;29;20043;-92
2024/02/01 03:11:51;;;;;;;21.58;10.40;;;;;;;-3.31;66.72;100645.19;4883533;29;20107;-93
2024/02/01 03:14:16;;;;;;;23.90;11.00;;;;;;;-3.21;66.54;100645.13;4900503;29;20027;-93
2024/02/01 03:16:42;;;;;;;18.38;10.10;;;;;;;-3.45;66.76;100618.34;4908447;29;20510;-93
2024/02/01 03:19:12;;;;;;;17.23;10.55;;;;;;;-3.49;67.04;100618.78;4907083;29;20143;-92
2024/02/01 03:21:38;;;;;;;17.35;9.40;;;;;;;-3.37;66.75;100653.66;4907528;29;20027;-92
2024/02/01 03:24:04;;;;;;;17.70;9.70;;;;;;;-3.57;67.03;100621.31;4907829;29;20029;-93
2024/02/01 03:26:37;;;;;;;19.25;9.60;;;;;;;-3.50;67.68;100646.94;4908591;29;20028;-92
2024/02/01 03:29:04;;;;;;;21.27;9.73;;;;;;;-3.55;67.61;100641.28;4908532;29;20028;-91
2024/02/01 03:31:33;;;;;;;17.33;9.40;;;;;;;-3.57;66.99;100630.06;4908893;29;20023;-91
2024/02/01 03:34:10;;;;;;;20.73;9.85;;;;;;;-3.70;67.38;100605.88;4909669;29;20024;-92
2024/02/01 03:36:37;;;;;;;22.38;10.85;;;;;;;-3.51;67.36;100653.19;4909177;29;20031;-92
2024/02/01 03:39:03;;;;;;;16.90;9.80;;;;;;;-3.67;67.71;100643.25;4908880;29;20103;-92
2024/02/01 03:41:28;;;;;;;16.80;9.43;;;;;;;-3.67;67.78;100631.91;4908487;29;20059;-93
2024/02/01 03:43:54;;;;;;;16.40;9.55;;;;;;;-3.64;67.46;100642.13;4908848;29;20023;-92
2024/02/01 03:46:20;;;;;;;18.65;9.45;;;;;;;-3.71;67.72;100635.81;4908781;29;20050;-93
2024/02/01 03:48:45;;;;;;;17.42;10.25;;;;;;;-3.72;67.94;100626.25;4906646;29;20008;-92
2024/02/01 03:51:11;;;;;;;20.48;9.07;;;;;;;-3.60;67.29;100637.41;4907700;29;20051;-93
2024/02/01 03:53:37;;;;;;;16.85;9.18;;;;;;;-3.80;68.04;100619.06;4908546;29;20032;-92
2024/02/01 03:56:04;;;;;;;15.48;9.60;;;;;;;-3.81;67.49;100621.84;4907701;29;20034;-92
2024/02/01 03:58:32;;;;;;;24.80;10.68;;;;;;;-3.76;67.34;100606.44;4900427;29;20043;-92
2024/02/01 04:01:01;;;;;;;16.38;9.70;;;;;;;-3.76;67.42;100624.88;4893668;29;20501;-93
2024/02/01 04:03:26;;;;;;;19.52;9.05;;;;;;;-3.92;67.53;100607.91;4898134;29;20115;-93
2024/02/01 04:05:53;;;;;;;15.77;9.55;;;;;;;-3.94;67.42;100596.69;4896665;29;20055;-94
2024/02/01 04:08:19;;;;;;;21.77;9.88;;;;;;;-3.69;67.45;100612.81;4893986;29;20027;-92
2024/02/01 04:10:45;;;;;;;17.83;9.90;;;;;;;-3.66;66.88;100605.44;4894391;29;20024;-92
2024/02/01 04:13:11;;;;;;;26.02;10.63;;;;;;;-3.53;66.86;100625.31;4894161;29;20019;-92
2024/02/01 04:15:36;;;;;;;18.60;10.63;;;;;;;-3.77;67.14;100613.53;4887209;29;20407;-94
2024/02/01 04:18:04;;;;;;;19.33;10.73;;;;;;;-3.59;66.53;100615.38;4904635;29;20024;-92
2024/02/01 04:20:32;;;;;;;17.60;9.80;;;;;;;-3.49;66.51;100598.56;4897289;29;20127;-92
2024/02/01 04:22:58;;;;;;;16.77;10.00;;;;;;;-3.47;66.54;100591.34;4906344;29;20470;-93
2024/02/01 04:25:24;;;;;;;21.08;9.80;;;;;;;-3.22;66.12;100610.03;4902565;29;20118;-91
2024/02/01 04:27:50;;;;;;;17.30;8.80;;;;;;;-3.15;66.26;100610.31;4886695;29;20032;-92
2024/02/01 04:30:20;;;;;;;19.75;10.00;;;;;;;-3.09;66.25;100617.63;4943033;29;20107;-93
2024/02/01 04:32:46;;;;;;;21.73;9.65;;;;;;;-3.32;65.84;100575.88;4904838;29;20028;-92
2024/02/01 04:35:15;;;;;;;19.48;10.00;;;;;;;-3.23;65.37;100594.41;4887190;29;20024;-92
2024/02/01 04:37:41;;;;;;;16.48;10.15;;;;;;;-3.18;65.76;100597.41;4905559;29;20031;-90
2024/02/01 04:40:08;;;;;;;23.30;11.20;;;;;;;-3.34;66.02;100591.00;4921800;29;20052;-89
2024/02/01 04:42:35;;;;;;;23.83;11.32;;;;;;;-3.28;65.55;100590.41;4905283;29;20031;-93
2024/02/01 04:45:07;;;;;;;23.35;10.25;;;;;;;-3.27;65.43;100591.25;4905551;29;20035;-91
2024/02/01 04:47:36;;;;;;;17.30;10.90;;;;;;;-3.22;65.33;100604.78;4909458;29;20028;-91
2024/02/01 04:50:02;;;;;;;19.52;11.00;;;;;;;-3.44;65.27;100577.06;4898455;29;20035;-89
2024/02/01 04:52:29;;;;;;;25.15;11.85;;;;;;;-3.29;65.23;100599.28;4899823;29;20039;-90
2024/02/01 04:54:55;;;;;;;64.38;47.05;;;;;;;-3.40;65.46;100588.13;4903483;29;20466;-90
2024/02/01 04:57:21;;;;;;;24.00;11.65;;;;;;;-3.50;65.22;100591.66;4895433;29;20051;-91
2024/02/01 05:00:14;;;;;;;26.10;12.20;;;;;;;-3.50;65.79;100578.47;4895862;29;20028;-92
2024/02/01 05:02:42;;;;;;;23.90;12.15;;;;;;;-3.43;65.56;100604.22;4923446;29;20028;-91
2024/02/01 05:05:10;;;;;;;19.65;11.13;;;;;;;-3.40;64.97;100596.88;4910718;29;20050;-91
2024/02/01 05:07:36;;;;;;;23.10;11.88;;;;;;;-3.62;65.56;100570.94;4903001;29;20020;-91
2024/02/01 05:10:02;;;;;;;26.55;11.38;;;;;;;-3.63;65.23;100572.75;4907177;29;20031;-89
2024/02/01 05:12:28;;;;;;;23.75;10.90;;;;;;;-3.57;66.27;100587.09;4904063;29;20062;-90
2024/02/01 05:14:54;;;;;;;22.25;11.10;;;;;;;-3.60;65.47;100587.41;4902086;29;20122;-92
2024/02/01 05:17:20;;;;;;;18.77;10.38;;;;;;;-3.64;65.51;100596.56;4880951;29;20023;-90
2024/02/01 05:19:49;;;;;;;23.30;12.43;;;;;;;-3.58;64.80;100569.66;4885155;29;20107;-92
2024/02/01 05:22:14;;;;;;;22.80;12.68;;;;;;;-3.61;65.45;100572.56;4904373;29;20020;-91
2024/02/01 05:24:43;;;;;;;29.27;11.82;;;;;;;-3.67;65.88;100584.53;4910043;29;20053;-91
2024/02/01 05:27:18;;;;;;;20.58;10.90;;;;;;;-3.69;65.63;100566.25;4908085;29;20058;-90
2024/02/01 05:29:49;;;;;;;24.52;11.32;;;;;;;-3.51;65.71;100590.00;4900271;29;20053;-90
2024/02/01 05:32:18;;;;;;;52.70;13.80;;;;;;;-3.53;65.71;100585.84;4906548;29;20031;-87
2024/02/01 05:34:47;;;;;;;32.60;13.65;;;;;;;-3.51;65.60;100590.00;4906773;29;20044;-91
2024/02/01 05:37:13;;;;;;;40.67;14.52;;;;;;;-3.49;65.31;100577.50;4937082;29;20023;-90
2024/02/01 05:39:44;;;;;;;28.17;13.82;;;;;;;-3.29;64.55;100588.75;4910565;29;20041;-90
2024/02/01 05:42:13;;;;;;;30.05;13.00;;;;;;;-3.08;64.41;100585.00;4909599;29;20119;-90
2024/02/01 05:44:38;;;;;;;25.35;14.40;;;;;;;-3.23;64.67;100568.06;4903000;29;20028;-91
2024/02/01 05:47:05;;;;;;;27.73;14.80;;;;;;;-3.04;64.92;100578.47;4907707;29;20089;-90
2024/02/01 05:49:35;;;;;;;28.20;12.05;;;;;;;-3.14;64.72;100570.63;4890541;29;20035;-89
2024/02/01 05:52:04;;;;;;;46.88;13.27;;;;;;;-3.07;64.92;100573.50;4894854;29;20041;-90
2024/02/01 05:54:31;;;;;;;22.77;12.45;;;;;;;-3.01;64.60;100579.97;4922150;29;20524;-89
2024/02/01 05:56:57;;;;;;;21.50;12.15;;;;;;;-3.06;64.75;100570.69;4925941;29;20031;-91
2024/02/01 05:59:22;;;;;;;23.88;12.52;;;;;;;-2.97;63.90;100582.13;4904564;29;20034;-89
2024/02/01 06:01:48;;;;;;;19.58;11.02;;;;;;;-2.99;63.96;100578.81;4906276;29;20458;-88
2024/02/01 06:04:16;;;;;;;22.08;11.52;;;;;;;-2.94;64.28;100589.75;4908184;29;20123;-90
2024/02/01 06:06:48;;;;;;;21.60;11.93;;;;;;;-2.78;63.78;100586.44;4890075;29;20047;-90
2024/02/01 06:09:15;;;;;;;21.45;11.00;;;;;;;-2.80;63.86;100572.59;4903500;29;20409;-87
2024/02/01 06:11:42;;;;;;;24.77;12.02;;;;;;;-2.81;63.75;100570.94;4887591;29;20036;-88
2024/02/01 06:14:08;;;;;;;22.05;12.65;;;;;;;-2.79;64.99;100583.97;4902963;29;20044;-88
2024/02/01 06:16:33;;;;;;;22.80;10.27;;;;;;;-2.65;63.89;100565.78;4885540;29;20036;-87
2024/02/01 06:18:59;;;;;;;26.65;14.55;;;;;;;-2.42;64.18;100569.75;4902749;29;20024;-88
2024/02/01 06:21:25;;;;;;;23.80;11.73;;;;;;;-2.52;62.84;100565.38;4914671;29;20024;-88
2024/02/01 06:23:50;;;;;;;28.08;12.90;;;;;;;-2.42;62.50;100575.03;4888870;29;20110;-88
2024/02/01 06:26:25;;;;;;;22.90;12.38;;;;;;;-2.59;63.14;100576.69;4904292;29;20140;-88
2024/02/01 06:28:57;;;;;;;23.98;12.20;;;;;;;-2.64;64.28;100579.78;4899468;29;20061;-87
2024/02/01 06:32:19;;;;;;;23.80;11.93;;;;;;;-2.26;62.57;100590.97;4878012;29;20032;-91
2024/02/01 06:34:53;;;;;;;22.77;12.05;;;;;;;-2.35;61.83;100578.69;4930214;29;20067;-89
2024/02/01 06:40:47;;;;;;;27.38;11.82;;;;;;;-2.14;61.04;100544.03;4925020;29;20438;-90
2024/02/01 06:43:41;;;;;;;24.63;12.18;;;;;;;-2.08;61.12;100538.13;4924722;29;20060;-88
2024/02/01 06:46:38;;;;;;;24.27;12.05;;;;;;;-1.84;60.20;100567.28;4920628;29;20039;-89
2024/02/01 06:49:11;;;;;;;26.02;12.82;;;;;;;-1.69;59.96;100564.03;4908547;29;20028;-89
2024/02/01 06:51:40;;;;;;;;;;;;;;;-1.65;60.38;100560.91;4917853;29;20426;-87
2024/02/01 06:54:16;;;;;;;30.40;14.05;;;;;;;-1.62;59.67;100549.19;4917270;29;19970;-89
2024/02/01 06:56:48;;;;;;;27.17;13.18;;;;;;;-1.73;60.54;100531.84;4909251;29;20406;-87
2024/02/01 07:02:34;;;;;;;29.38;14.00;;;;;;;-1.51;59.99;100541.00;4837643;29;20070;-91
2024/02/01 07:05:11;;;;;;;33.58;15.60;;;;;;;-1.51;60.20;100537.53;4858728;29;20040;-90
2024/02/01 07:07:43;;;;;;;35.40;16.42;;;;;;;-1.36;60.00;100541.19;4901911;29;20039;-91
2024/02/01 07:10:16;;;;;;;;;;;;;;;-1.22;59.48;100545.03;4904795;29;20036;-89
2024/02/01 07:15:48;;;;;;;22.30;12.27;;;;;;;-1.13;58.56;100544.03;4902302;29;20044;-89
2024/02/01 07:18:15;;;;;;;29.95;12.25;;;;;;;-1.09;58.36;100548.00;4901312;29;20079;-91
2024/02/01 07:25:48;;;;;;;23.60;12.60;;;;;;;-0.65;56.70;100534.47;4906526;29;20039;-90
2024/02/01 07:58:40;;;;;;;32.28;15.10;;;;;;;0.51;53.80;100505.81;4914029;29;20458;-88
2024/02/01 08:01:17;;;;;;;31.95;15.40;;;;;;;0.74;53.65;100495.22;4902970;29;20028;-91
2024/02/01 08:03:59;;;;;;;36.95;16.98;;;;;;;0.89;53.56;100485.50;4904953;29;20119;-88
2024/02/01 08:09:15;;;;;;;34.55;16.48;;;;;;;0.80;54.22;100475.97;4923736;29;20042;-90
2024/02/01 08:11:41;;;;;;;34.95;18.50;;;;;;;0.90;53.68;100481.03;4905899;29;20071;-90
2024/02/01 08:21:14;;;;;;;48.40;22.00;;;;;;;1.71;50.39;100471.47;4883393;29;20101;-91
2024/02/01 08:23:40;;;;;;;36.15;18.65;;;;;;;1.70;49.08;100459.22;4907633;29;20550;-90
2024/02/01 08:26:19;;;;;;;;;;;;;;;;;;;;;
2024/02/01 08:28:53;;;;;;;31.45;12.43;;;;;;;2.02;45.75;100465.94;4880712;29;20041;-89
2024/02/01 08:31:52;;;;;;;;;;;;;;;;;;;;;
2024/02/01 08:35:07;;;;;;;;;;;;;;;;;;;;;
2024/02/01 08:37:38;;;;;;;34.05;17.05;;;;;;;2.19;46.97;100436.50;4856650;29;20120;-91
2024/02/01 08:40:48;;;;;;;42.00;18.38;;;;;;;2.25;47.87;100446.41;4873370;29;20105;-92
2024/02/01 08:46:33;;;;;;;32.38;18.42;;;;;;;2.78;47.73;100452.25;4868720;29;20045;-91
2024/02/01 08:48:59;;;;;;;40.70;19.33;;;;;;;2.88;47.51;100424.50;4823741;29;20528;-91
2024/02/01 08:51:59;;;;;;;46.67;21.30;;;;;;;3.20;46.99;100447.91;4840627;29;20416;-93
2024/02/01 08:54:31;;;;;;;43.78;21.38;;;;;;;3.22;46.81;100439.72;4832555;29;20137;-93
2024/02/01 08:57:00;;;;;;;47.60;18.90;;;;;;;3.23;46.59;100420.06;4843531;29;20048;-91
2024/02/01 08:59:35;;;;;;;38.55;18.40;;;;;;;3.33;45.38;100396.59;4870444;29;20040;-91
2024/02/01 09:02:25;;;;;;;35.85;17.27;;;;;;;3.66;45.22;100421.78;4904325;29;20028;-96
2024/02/01 09:04:52;;;;;;;31.75;18.13;;;;;;;3.75;44.90;100412.56;4897414;29;20032;-89
2024/02/01 09:07:54;;;;;;;;;;;;;;;;;;;;;
2024/02/01 09:10:20;;;;;;;29.10;17.50;;;;;;;4.16;43.93;100419.72;4941631;29;20127;-90
2024/02/01 09:12:48;;;;;;;40.05;18.50;;;;;;;4.12;44.34;100389.16;4910712;29;20063;-91
2024/02/01 09:15:47;;;;;;;34.25;15.88;;;;;;;4.30;42.45;100397.41;4915132;29;20063;-95
2024/02/01 09:21:51;;;;;;;31.58;16.45;;;;;;;4.42;42.38;100377.13;4933323;29;20052;-89
2024/02/01 09:24:26;;;;;;;30.95;15.77;;;;;;;4.45;42.48;100362.56;4914058;29;20475;-90
2024/02/01 09:26:52;;;;;;;26.75;15.70;;;;;;;4.73;42.61;100378.38;4930110;29;20504;-89
2024/02/01 09:29:26;;;;;;;31.58;17.50;;;;;;;4.71;41.00;100356.44;4930147;29;20053;-90
2024/02/01 09:31:56;;;;;;;27.52;17.00;;;;;;;4.95;41.59;100368.28;4928859;29;20028;-88
2024/02/01 09:34:35;;;;;;;31.20;16.40;;;;;;;5.14;42.34;100369.28;4907016;29;20058;-91
2024/02/01 09:37:22;;;;;;;31.05;16.60;;;;;;;5.06;40.27;100346.31;4903567;29;20067;-91
2024/02/01 09:40:00;;;;;;;29.67;16.80;;;;;;;5.21;40.49;100338.09;4918837;29;20039;-89
2024/02/01 09:42:33;;;;;;;31.42;16.48;;;;;;;5.36;39.93;100340.50;4902700;29;20042;-90
2024/02/01 09:45:01;;;;;;;33.40;16.73;;;;;;;5.51;40.12;100342.09;4915570;29;20067;-89
2024/02/01 09:48:07;;;;;;;;;;;;;;;;;;;;;
2024/02/01 09:50:28;;;;;;;29.52;18.30;;;;;;;5.64;40.12;100312.66;4916830;29;20036;-90
2024/02/01 09:53:05;;;;;;;34.13;18.65;;;;;;;5.73;39.67;100298.03;4878982;29;20384;-93
2024/02/01 09:55:44;;;;;;;25.25;15.90;;;;;;;5.81;38.87;100294.25;4883620;29;20082;-91
2024/02/01 09:58:32;;;;;;;;;;;;;;;;;;;;;
2024/02/01 10:04:51;;;;;;;25.58;10.98;;;;;;;6.44;33.95;100296.16;4931798;29;20047;-92
2024/02/01 10:07:15;;;;;;;26.85;11.63;;;;;;;6.58;33.00;100292.31;4920241;29;20091;-90
2024/02/01 10:09:51;;;;;;;17.75;9.25;;;;;;;6.70;32.37;100286.22;4896528;29;20051;-90
2024/02/01 10:12:25;;;;;;;25.08;11.00;;;;;;;6.72;32.74;100278.81;4899987;29;20016;-93
2024/02/01 10:15:20;;;;;;;;;;;;;;;;;;;;;
2024/02/01 10:18:07;;;;;;;15.25;6.88;;;;;;;7.00;29.07;100291.72;4919632;29;20107;-90
2024/02/01 10:20:40;;;;;;;11.30;6.70;;;;;;;6.97;29.29;100271.56;4912100;29;20409;-92
2024/02/01 10:23:29;;;;;;;;;;;;;;;;;;;;;
2024/02/01 10:26:01;;;;;;;13.57;4.68;;;;;;;7.00;29.58;100246.19;4939259;29;20052;-91
2024/02/01 10:28:37;;;;;;;8.48;4.28;;;;;;;7.17;28.04;100255.25;4913195;29;20058;-93
2024/02/01 10:31:23;;;;;;;14.15;5.15;;;;;;;7.30;28.89;100259.63;4935207;29;20047;-94
2024/02/01 10:33:49;;;;;;;9.82;5.53;;;;;;;7.29;28.92;100229.34;4903739;29;20131;-94
2024/02/01 10:36:37;;;;;;;14.23;7.05;;;;;;;7.31;29.40;100209.56;4925900;29;20119;-96
2024/02/01 10:39:06;;;;;;;19.00;11.18;;;;;;;7.50;28.75;100224.56;4914505;29;20027;-91
2024/02/01 10:41:37;;;;;;;13.38;8.95;;;;;;;7.67;28.17;100232.78;4911863;29;20028;-91
2024/02/01 10:44:34;;;;;;;19.10;10.52;;;;;;;7.56;28.75;100194.16;4918253;29;20018;-95
2024/02/01 10:47:00;;;;;;;11.77;8.50;;;;;;;7.75;28.83;100212.88;4926316;29;20032;-93
2024/02/01 10:49:25;;;;;;;19.35;8.85;;;;;;;7.78;28.68;100202.53;4907817;29;20055;-94
2024/02/01 10:51:57;;;;;;;18.15;9.15;;;;;;;7.80;28.53;100199.59;4915516;29;20032;-93
2024/02/01 10:54:43;;;;;;;18.00;9.32;;;;;;;7.82;29.10;100176.03;4917229;29;20031;-96
2024/02/01 10:57:12;;;;;;;14.50;7.80;;;;;;;7.96;28.76;100179.34;4932681;29;20095;-93
2024/02/01 10:59:38;;;;;;;15.02;8.23;;;;;;;8.19;29.40;100190.09;4926461;29;20019;-93
2024/02/01 11:02:04;;;;;;;12.52;6.90;;;;;;;8.24;28.41;100187.53;4906822;29;20556;-95
2024/02/01 11:04:36;;;;;;;11.05;7.53;;;;;;;8.21;28.51;100163.84;4908987;29;20505;-93
2024/02/01 11:07:02;;;;;;;10.23;6.10;;;;;;;8.37;28.13;100172.25;4910761;29;20095;-90
2024/02/01 11:09:41;;;;;;;;;;;;;;;;;;;;;
2024/02/01 11:12:12;;;;;;;11.15;5.88;;;;;;;8.51;27.14;100152.22;4907090;29;20123;-95
2024/02/01 11:14:38;;;;;;;9.52;5.22;;;;;;;8.46;26.77;100141.34;4910833;29;20023;-91
2024/02/01 11:17:26;;;;;;;11.30;5.90;;;;;;;8.80;26.94;100168.34;4913378;29;20114;-95
2024/02/01 11:19:52;;;;;;;15.32;7.22;;;;;;;8.73;26.88;100138.97;4900531;29;20138;-95
2024/02/01 11:22:27;;;;;;;9.75;5.90;;;;;;;8.80;25.87;100138.81;4881018;29;20068;-95
2024/02/01 11:25:04;;;;;;;13.00;5.72;;;;;;;8.96;25.71;100151.50;4904170;29;20032;-92
2024/02/01 11:27:36;;;;;;;10.15;5.35;;;;;;;9.00;26.29;100157.22;4890608;29;20032;-94
2024/02/01 11:30:19;;;;;;;10.57;6.03;;;;;;;9.02;25.81;100147.88;4893346;29;20027;-94
2024/02/01 11:32:48;;;;;;;10.43;6.80;;;;;;;9.11;26.32;100137.59;4895395;29;20063;-94
2024/02/01 11:35:20;;;;;;;11.85;7.28;;;;;;;9.17;26.50;100125.03;4892306;29;20024;-95
2024/02/01 11:37:45;;;;;;;;;;;;;;;9.36;25.98;100139.91;4885343;29;20032;-95
2024/02/01 11:40:29;;;;;;;10.55;5.80;;;;;;;9.24;26.20;100125.72;4869999;29;19955;-96
2024/02/01 11:43:03;;;;;;;9.68;5.85;;;;;;;9.23;26.44;100116.00;4976089;23;20018;-94
2024/02/01 11:49:16;;;;;;;9.07;5.70;;;;;;;9.49;26.02;100125.34;4944668;29;20050;-94
2024/02/01 11:52:23;;;;;;;15.02;6.45;;;;;;;9.57;26.55;100119.56;5170579;23;20060;-93
2024/02/01 11:55:07;;;;;;;13.60;6.30;;;;;;;9.49;26.20;100090.41;4932573;29;20099;-92
2024/02/01 11:57:57;;;;;;;;;;;;;;;;;;;;;
2024/02/01 12:00:44;;;;;;;7.75;5.25;;;;;;;9.59;25.91;100095.16;4917390;29;20144;-93
2024/02/01 12:03:33;;;;;;;12.02;6.93;;;;;;;9.72;25.96;100097.50;4885334;29;20041;-93
2024/02/01 12:06:08;;;;;;;12.07;6.10;;;;;;;9.62;26.01;100084.69;4899945;29;20400;-91
2024/02/01 12:08:59;;;;;;;8.88;5.20;;;;;;;9.48;26.28;100064.56;4892824;29;20021;-91
2024/02/01 12:11:29;;;;;;;15.00;5.97;;;;;;;9.55;25.61;100053.69;4895373;29;20429;-91
2024/02/01 12:14:06;;;;;;;10.10;5.55;;;;;;;9.81;25.99;100084.44;4893284;29;20029;-91
2024/02/01 12:16:36;;;;;;;6.22;4.60;;;;;;;9.81;25.80;100066.44;4873921;29;20036;-94
2024/02/01 12:19:12;;;;;;;7.72;5.18;;;;;;;9.77;26.33;100045.66;4877782;29;20030;-94
2024/02/01 12:21:43;;;;;;;13.50;5.00;;;;;;;9.74;25.98;100036.22;4883621;29;20029;-93
2024/02/01 12:24:10;;;;;;;6.63;3.63;;;;;;;9.73;25.26;100034.56;4869565;29;20040;-93
2024/02/01 12:26:38;;;;;;;7.80;3.65;;;;;;;9.93;25.20;100050.19;4893239;29;20031;-93
2024/02/01 12:29:09;;;;;;;6.47;4.15;;;;;;;9.82;25.66;100041.19;4894889;29;20041;-95
2024/02/01 12:31:38;;;;;;;8.05;4.57;;;;;;;9.83;25.88;100040.09;4898729;29;20035;-94
2024/02/01 12:34:05;;;;;;;7.10;4.43;;;;;;;9.87;25.93;100046.63;4918134;29;20473;-94
2024/02/01 12:36:49;;;;;;;9.05;4.28;;;;;;;9.86;25.98;100018.09;4911701;29;20028;-94
2024/02/01 12:39:21;;;;;;;7.03;4.30;;;;;;;10.03;26.26;100036.91;4915766;29;20099;-93
2024/02/01 12:42:07;;;;;;;12.18;4.65;;;;;;;10.09;27.50;100056.63;4907236;29;20035;-96
2024/02/01 12:47:41;;;;;;;6.72;4.40;;;;;;;9.84;28.02;100008.66;4928762;29;20035;-94
2024/02/01 12:50:40;;;;;;;6.13;4.07;;;;;;;10.10;28.25;100042.09;4909110;29;20046;-94
2024/02/01 12:53:22;;;;;;;14.52;4.60;;;;;;;10.03;27.14;100015.38;4914676;29;20052;-92
2024/02/01 12:56:21;;;;;;;5.90;3.83;;;;;;;9.98;27.29;100004.56;4895095;29;20035;-93
2024/02/01 12:59:12;;;;;;;5.43;3.40;;;;;;;10.01;27.04;99995.16;4896616;29;20161;-93
2024/02/01 13:01:56;;;;;;;;;;;;;;;;;;;;;
2024/02/01 13:04:23;;;;;;;5.30;3.58;;;;;;;10.08;27.11;99999.28;4924996;29;20122;-90